sensor_id;sensor_type;location;lat;lon;timestamp;P1;durP1;ratioP1;P2;durP2;ratioP2
36411;SDS011;22445;52.100;5.176;2022-09-09T00:00:40;3.75;;;2.78;;
36411;SDS011;22445;52.100;5.176;2022-09-09T00:06:26;3.30;;;2.65;;
36411;SDS011;22445;52.100;5.176;2022-09-09T00:09:04;4.07;;;3.00;;
36411;SDS011;22445;52.100;5.176;2022-09-09T00:17:11;5.47;;;3.67;;
36411;SDS011;22445;52.100;5.176;2022-09-09T00:22:31;10.48;;;4.80;;
36411;SDS011;22445;52.100;5.176;2022-09-09T00:27:50;4.85;;;4.13;;
36411;SDS011;22445;52.100;5.176;2022-09-09T00:30:17;4.88;;;4.35;;
36411;SDS011;22445;52.100;5.176;2022-09-09T00:32:47;6.25;;;4.30;;
36411;SDS011;22445;52.100;5.176;2022-09-09T00:37:45;4.72;;;4.22;;
36411;SDS011;22445;52.100;5.176;2022-09-09T00:43:04;6.65;;;4.55;;
36411;SDS011;22445;52.100;5.176;2022-09-09T00:51:41;5.80;;;4.47;;
36411;SDS011;22445;52.100;5.176;2022-09-09T00:57:45;5.93;;;4.63;;
36411;SDS011;22445;52.100;5.176;2022-09-09T01:00:35;6.90;;;4.93;;
36411;SDS011;22445;52.100;5.176;2022-09-09T01:02:46;7.47;;;4.88;;
36411;SDS011;22445;52.100;5.176;2022-09-09T01:08:06;6.47;;;4.32;;
36411;SDS011;22445;52.100;5.176;2022-09-09T01:10:54;10.15;;;4.70;;
36411;SDS011;22445;52.100;5.176;2022-09-09T01:13:27;8.38;;;4.68;;
36411;SDS011;22445;52.100;5.176;2022-09-09T01:15:56;8.18;;;4.40;;
36411;SDS011;22445;52.100;5.176;2022-09-09T01:18:26;10.55;;;4.70;;
36411;SDS011;22445;52.100;5.176;2022-09-09T01:24:20;6.57;;;4.80;;
36411;SDS011;22445;52.100;5.176;2022-09-09T01:27:04;5.72;;;4.13;;
36411;SDS011;22445;52.100;5.176;2022-09-09T01:29:32;6.70;;;4.72;;
36411;SDS011;22445;52.100;5.176;2022-09-09T01:31:59;7.00;;;5.00;;
36411;SDS011;22445;52.100;5.176;2022-09-09T01:34:36;7.57;;;5.28;;
36411;SDS011;22445;52.100;5.176;2022-09-09T01:37:08;9.00;;;4.75;;
36411;SDS011;22445;52.100;5.176;2022-09-09T01:39:36;7.93;;;5.05;;
36411;SDS011;22445;52.100;5.176;2022-09-09T01:42:03;5.72;;;5.00;;
36411;SDS011;22445;52.100;5.176;2022-09-09T01:44:31;8.57;;;5.40;;
36411;SDS011;22445;52.100;5.176;2022-09-09T01:46:59;9.20;;;5.65;;
36411;SDS011;22445;52.100;5.176;2022-09-09T01:49:25;6.47;;;5.05;;
36411;SDS011;22445;52.100;5.176;2022-09-09T01:51:54;6.05;;;4.72;;
36411;SDS011;22445;52.100;5.176;2022-09-09T01:54:23;6.97;;;5.35;;
36411;SDS011;22445;52.100;5.176;2022-09-09T02:05:41;10.00;;;6.75;;
36411;SDS011;22445;52.100;5.176;2022-09-09T02:08:37;10.60;;;6.45;;
36411;SDS011;22445;52.100;5.176;2022-09-09T02:11:05;9.82;;;6.72;;
36411;SDS011;22445;52.100;5.176;2022-09-09T02:13:35;13.40;;;6.78;;
36411;SDS011;22445;52.100;5.176;2022-09-09T02:21:35;7.57;;;6.60;;
36411;SDS011;22445;52.100;5.176;2022-09-09T02:24:04;10.63;;;7.38;;
36411;SDS011;22445;52.100;5.176;2022-09-09T02:26:33;13.02;;;7.40;;
36411;SDS011;22445;52.100;5.176;2022-09-09T02:29:01;9.80;;;7.63;;
36411;SDS011;22445;52.100;5.176;2022-09-09T02:31:29;9.90;;;7.78;;
36411;SDS011;22445;52.100;5.176;2022-09-09T02:33:56;12.57;;;7.88;;
36411;SDS011;22445;52.100;5.176;2022-09-09T02:36:25;12.98;;;8.88;;
36411;SDS011;22445;52.100;5.176;2022-09-09T02:38:55;10.85;;;7.63;;
36411;SDS011;22445;52.100;5.176;2022-09-09T02:41:26;14.18;;;7.95;;
36411;SDS011;22445;52.100;5.176;2022-09-09T02:43:55;13.52;;;7.97;;
36411;SDS011;22445;52.100;5.176;2022-09-09T02:51:58;13.00;;;8.38;;
36411;SDS011;22445;52.100;5.176;2022-09-09T02:54:38;11.32;;;9.05;;
36411;SDS011;22445;52.100;5.176;2022-09-09T02:57:10;12.55;;;7.97;;
36411;SDS011;22445;52.100;5.176;2022-09-09T02:59:43;12.73;;;8.63;;
36411;SDS011;22445;52.100;5.176;2022-09-09T03:02:09;11.95;;;8.95;;
36411;SDS011;22445;52.100;5.176;2022-09-09T03:04:37;12.65;;;8.18;;
36411;SDS011;22445;52.100;5.176;2022-09-09T03:07:05;13.90;;;8.32;;
36411;SDS011;22445;52.100;5.176;2022-09-09T03:09:30;11.90;;;8.85;;
36411;SDS011;22445;52.100;5.176;2022-09-09T03:11:58;12.32;;;8.52;;
36411;SDS011;22445;52.100;5.176;2022-09-09T03:14:25;12.50;;;8.88;;
36411;SDS011;22445;52.100;5.176;2022-09-09T03:16:51;11.43;;;8.10;;
36411;SDS011;22445;52.100;5.176;2022-09-09T03:19:19;11.55;;;8.38;;
36411;SDS011;22445;52.100;5.176;2022-09-09T03:21:47;14.57;;;8.85;;
36411;SDS011;22445;52.100;5.176;2022-09-09T03:24:13;12.57;;;8.90;;
36411;SDS011;22445;52.100;5.176;2022-09-09T03:26:39;13.50;;;8.55;;
36411;SDS011;22445;52.100;5.176;2022-09-09T03:29:06;11.15;;;8.50;;
36411;SDS011;22445;52.100;5.176;2022-09-09T03:31:34;17.00;;;10.80;;
36411;SDS011;22445;52.100;5.176;2022-09-09T03:34:01;13.10;;;9.05;;
36411;SDS011;22445;52.100;5.176;2022-09-09T03:36:28;13.52;;;9.05;;
36411;SDS011;22445;52.100;5.176;2022-09-09T03:38:55;16.13;;;9.38;;
36411;SDS011;22445;52.100;5.176;2022-09-09T03:41:21;11.32;;;8.70;;
36411;SDS011;22445;52.100;5.176;2022-09-09T03:43:50;17.05;;;10.02;;
36411;SDS011;22445;52.100;5.176;2022-09-09T03:46:17;19.08;;;9.98;;
36411;SDS011;22445;52.100;5.176;2022-09-09T03:48:47;13.00;;;9.32;;
36411;SDS011;22445;52.100;5.176;2022-09-09T03:51:13;14.43;;;9.20;;
36411;SDS011;22445;52.100;5.176;2022-09-09T03:53:40;13.38;;;9.57;;
36411;SDS011;22445;52.100;5.176;2022-09-09T03:56:07;15.50;;;10.07;;
36411;SDS011;22445;52.100;5.176;2022-09-09T03:58:35;13.15;;;9.30;;
36411;SDS011;22445;52.100;5.176;2022-09-09T04:01:03;13.02;;;9.68;;
36411;SDS011;22445;52.100;5.176;2022-09-09T04:03:31;11.30;;;9.13;;
36411;SDS011;22445;52.100;5.176;2022-09-09T04:05:59;13.85;;;8.73;;
36411;SDS011;22445;52.100;5.176;2022-09-09T04:08:25;12.98;;;9.02;;
36411;SDS011;22445;52.100;5.176;2022-09-09T04:10:52;15.27;;;8.38;;
36411;SDS011;22445;52.100;5.176;2022-09-09T04:13:19;19.48;;;9.02;;
36411;SDS011;22445;52.100;5.176;2022-09-09T04:15:51;14.43;;;8.88;;
36411;SDS011;22445;52.100;5.176;2022-09-09T04:18:18;13.45;;;9.25;;
36411;SDS011;22445;52.100;5.176;2022-09-09T04:20:48;15.32;;;8.30;;
36411;SDS011;22445;52.100;5.176;2022-09-09T04:23:14;13.77;;;9.20;;
36411;SDS011;22445;52.100;5.176;2022-09-09T04:25:46;11.00;;;8.38;;
36411;SDS011;22445;52.100;5.176;2022-09-09T04:28:14;14.35;;;8.45;;
36411;SDS011;22445;52.100;5.176;2022-09-09T04:30:42;14.48;;;9.05;;
36411;SDS011;22445;52.100;5.176;2022-09-09T04:33:09;14.30;;;8.02;;
36411;SDS011;22445;52.100;5.176;2022-09-09T04:35:37;12.25;;;8.98;;
36411;SDS011;22445;52.100;5.176;2022-09-09T04:38:05;10.90;;;8.13;;
36411;SDS011;22445;52.100;5.176;2022-09-09T04:40:34;14.32;;;8.85;;
36411;SDS011;22445;52.100;5.176;2022-09-09T04:43:03;16.30;;;9.32;;
36411;SDS011;22445;52.100;5.176;2022-09-09T04:45:31;14.27;;;8.73;;
36411;SDS011;22445;52.100;5.176;2022-09-09T04:47:59;10.63;;;8.25;;
36411;SDS011;22445;52.100;5.176;2022-09-09T04:50:25;15.40;;;8.45;;
36411;SDS011;22445;52.100;5.176;2022-09-09T04:52:50;12.50;;;7.82;;
36411;SDS011;22445;52.100;5.176;2022-09-09T04:55:17;12.55;;;8.10;;
36411;SDS011;22445;52.100;5.176;2022-09-09T04:57:44;11.75;;;8.02;;
36411;SDS011;22445;52.100;5.176;2022-09-09T05:00:09;14.15;;;7.45;;
36411;SDS011;22445;52.100;5.176;2022-09-09T05:02:38;13.90;;;8.20;;
36411;SDS011;22445;52.100;5.176;2022-09-09T05:05:05;9.32;;;7.18;;
36411;SDS011;22445;52.100;5.176;2022-09-09T05:07:31;11.93;;;7.22;;
36411;SDS011;22445;52.100;5.176;2022-09-09T05:09:58;11.63;;;7.38;;
36411;SDS011;22445;52.100;5.176;2022-09-09T05:12:25;13.02;;;7.72;;
36411;SDS011;22445;52.100;5.176;2022-09-09T05:14:52;11.98;;;8.07;;
36411;SDS011;22445;52.100;5.176;2022-09-09T05:17:19;12.60;;;7.80;;
36411;SDS011;22445;52.100;5.176;2022-09-09T05:19:45;12.77;;;7.78;;
36411;SDS011;22445;52.100;5.176;2022-09-09T05:22:12;12.68;;;7.40;;
36411;SDS011;22445;52.100;5.176;2022-09-09T05:24:38;10.93;;;7.30;;
36411;SDS011;22445;52.100;5.176;2022-09-09T05:27:04;10.05;;;7.30;;
36411;SDS011;22445;52.100;5.176;2022-09-09T05:29:31;14.68;;;6.88;;
36411;SDS011;22445;52.100;5.176;2022-09-09T05:31:58;9.45;;;6.68;;
36411;SDS011;22445;52.100;5.176;2022-09-09T05:34:25;13.80;;;6.80;;
36411;SDS011;22445;52.100;5.176;2022-09-09T05:36:53;12.35;;;7.15;;
36411;SDS011;22445;52.100;5.176;2022-09-09T05:39:20;14.38;;;6.80;;
36411;SDS011;22445;52.100;5.176;2022-09-09T05:41:47;10.60;;;7.05;;
36411;SDS011;22445;52.100;5.176;2022-09-09T05:44:13;13.60;;;7.30;;
36411;SDS011;22445;52.100;5.176;2022-09-09T05:46:40;10.15;;;6.60;;
36411;SDS011;22445;52.100;5.176;2022-09-09T05:49:07;8.07;;;6.07;;
36411;SDS011;22445;52.100;5.176;2022-09-09T05:51:33;12.15;;;6.60;;
36411;SDS011;22445;52.100;5.176;2022-09-09T05:54:00;8.35;;;6.20;;
36411;SDS011;22445;52.100;5.176;2022-09-09T05:56:26;14.57;;;6.65;;
36411;SDS011;22445;52.100;5.176;2022-09-09T05:58:55;8.82;;;5.80;;
36411;SDS011;22445;52.100;5.176;2022-09-09T06:01:39;8.20;;;5.85;;
36411;SDS011;22445;52.100;5.176;2022-09-09T06:04:06;8.80;;;5.57;;
36411;SDS011;22445;52.100;5.176;2022-09-09T06:06:35;13.48;;;5.70;;
36411;SDS011;22445;52.100;5.176;2022-09-09T06:09:03;9.25;;;5.15;;
36411;SDS011;22445;52.100;5.176;2022-09-09T06:11:33;12.63;;;5.00;;
36411;SDS011;22445;52.100;5.176;2022-09-09T06:13:59;13.90;;;4.43;;
36411;SDS011;22445;52.100;5.176;2022-09-09T06:16:27;14.45;;;4.65;;
36411;SDS011;22445;52.100;5.176;2022-09-09T06:18:55;8.93;;;4.20;;
36411;SDS011;22445;52.100;5.176;2022-09-09T06:21:22;6.43;;;4.43;;
36411;SDS011;22445;52.100;5.176;2022-09-09T06:23:52;8.18;;;4.13;;
36411;SDS011;22445;52.100;5.176;2022-09-09T06:26:28;11.23;;;3.83;;
36411;SDS011;22445;52.100;5.176;2022-09-09T06:28:57;12.88;;;3.85;;
36411;SDS011;22445;52.100;5.176;2022-09-09T06:31:24;10.48;;;4.25;;
36411;SDS011;22445;52.100;5.176;2022-09-09T06:33:52;9.75;;;3.03;;
36411;SDS011;22445;52.100;5.176;2022-09-09T06:36:22;8.00;;;2.60;;
36411;SDS011;22445;52.100;5.176;2022-09-09T06:38:50;7.10;;;3.00;;
36411;SDS011;22445;52.100;5.176;2022-09-09T06:41:17;7.90;;;2.90;;
36411;SDS011;22445;52.100;5.176;2022-09-09T06:43:45;7.00;;;2.85;;
36411;SDS011;22445;52.100;5.176;2022-09-09T06:46:15;10.75;;;3.38;;
36411;SDS011;22445;52.100;5.176;2022-09-09T06:48:44;6.85;;;2.95;;
36411;SDS011;22445;52.100;5.176;2022-09-09T06:51:14;8.13;;;2.55;;
36411;SDS011;22445;52.100;5.176;2022-09-09T06:53:42;6.32;;;2.60;;
36411;SDS011;22445;52.100;5.176;2022-09-09T06:56:25;7.85;;;2.55;;
36411;SDS011;22445;52.100;5.176;2022-09-09T06:58:55;4.20;;;2.40;;
36411;SDS011;22445;52.100;5.176;2022-09-09T07:01:25;5.22;;;2.72;;
36411;SDS011;22445;52.100;5.176;2022-09-09T07:03:53;6.60;;;2.42;;
36411;SDS011;22445;52.100;5.176;2022-09-09T07:06:29;6.45;;;3.13;;
36411;SDS011;22445;52.100;5.176;2022-09-09T07:09:10;6.22;;;2.55;;
36411;SDS011;22445;52.100;5.176;2022-09-09T07:11:39;5.97;;;2.08;;
36411;SDS011;22445;52.100;5.176;2022-09-09T07:14:08;7.10;;;2.50;;
36411;SDS011;22445;52.100;5.176;2022-09-09T07:16:35;7.38;;;2.70;;
36411;SDS011;22445;52.100;5.176;2022-09-09T07:19:04;6.40;;;2.47;;
36411;SDS011;22445;52.100;5.176;2022-09-09T07:21:30;8.27;;;2.50;;
36411;SDS011;22445;52.100;5.176;2022-09-09T07:23:57;7.10;;;1.90;;
36411;SDS011;22445;52.100;5.176;2022-09-09T07:26:26;5.30;;;2.28;;
36411;SDS011;22445;52.100;5.176;2022-09-09T07:28:54;5.88;;;2.50;;
36411;SDS011;22445;52.100;5.176;2022-09-09T07:31:30;9.57;;;2.58;;
36411;SDS011;22445;52.100;5.176;2022-09-09T07:33:58;4.70;;;2.25;;
36411;SDS011;22445;52.100;5.176;2022-09-09T07:36:29;8.35;;;2.08;;
36411;SDS011;22445;52.100;5.176;2022-09-09T07:38:58;10.57;;;2.20;;
36411;SDS011;22445;52.100;5.176;2022-09-09T07:43:59;6.72;;;2.15;;
36411;SDS011;22445;52.100;5.176;2022-09-09T07:46:26;8.85;;;2.50;;
36411;SDS011;22445;52.100;5.176;2022-09-09T07:48:54;7.25;;;2.15;;
36411;SDS011;22445;52.100;5.176;2022-09-09T07:51:22;8.18;;;1.90;;
36411;SDS011;22445;52.100;5.176;2022-09-09T07:53:59;7.28;;;2.17;;
36411;SDS011;22445;52.100;5.176;2022-09-09T07:56:27;6.93;;;2.20;;
36411;SDS011;22445;52.100;5.176;2022-09-09T07:58:54;3.97;;;1.80;;
36411;SDS011;22445;52.100;5.176;2022-09-09T08:01:23;8.05;;;2.03;;
36411;SDS011;22445;52.100;5.176;2022-09-09T08:06:21;6.50;;;1.95;;
36411;SDS011;22445;52.100;5.176;2022-09-09T08:08:51;7.32;;;2.00;;
36411;SDS011;22445;52.100;5.176;2022-09-09T08:11:16;3.58;;;1.38;;
36411;SDS011;22445;52.100;5.176;2022-09-09T08:13:43;8.40;;;2.13;;
36411;SDS011;22445;52.100;5.176;2022-09-09T08:16:16;9.05;;;2.38;;
36411;SDS011;22445;52.100;5.176;2022-09-09T08:18:43;7.57;;;1.92;;
36411;SDS011;22445;52.100;5.176;2022-09-09T08:23:41;6.80;;;1.92;;
36411;SDS011;22445;52.100;5.176;2022-09-09T08:26:11;5.22;;;1.75;;
36411;SDS011;22445;52.100;5.176;2022-09-09T08:28:38;5.72;;;1.90;;
36411;SDS011;22445;52.100;5.176;2022-09-09T08:31:10;6.18;;;1.63;;
36411;SDS011;22445;52.100;5.176;2022-09-09T08:33:38;5.85;;;1.75;;
36411;SDS011;22445;52.100;5.176;2022-09-09T08:36:05;6.57;;;2.10;;
36411;SDS011;22445;52.100;5.176;2022-09-09T08:38:32;8.15;;;1.92;;
36411;SDS011;22445;52.100;5.176;2022-09-09T08:41:06;9.63;;;2.05;;
36411;SDS011;22445;52.100;5.176;2022-09-09T08:43:33;5.43;;;1.50;;
36411;SDS011;22445;52.100;5.176;2022-09-09T08:48:55;4.70;;;1.52;;
36411;SDS011;22445;52.100;5.176;2022-09-09T08:51:27;5.55;;;1.85;;
36411;SDS011;22445;52.100;5.176;2022-09-09T08:53:54;6.40;;;2.05;;
36411;SDS011;22445;52.100;5.176;2022-09-09T08:56:26;7.75;;;1.77;;
36411;SDS011;22445;52.100;5.176;2022-09-09T08:58:55;5.93;;;1.92;;
36411;SDS011;22445;52.100;5.176;2022-09-09T09:01:26;6.55;;;2.30;;
36411;SDS011;22445;52.100;5.176;2022-09-09T09:10:07;4.43;;;1.50;;
36411;SDS011;22445;52.100;5.176;2022-09-09T09:12:44;5.50;;;1.60;;
36411;SDS011;22445;52.100;5.176;2022-09-09T09:15:21;5.22;;;1.95;;
36411;SDS011;22445;52.100;5.176;2022-09-09T09:18:07;8.10;;;1.67;;
36411;SDS011;22445;52.100;5.176;2022-09-09T09:23:24;7.10;;;1.90;;
36411;SDS011;22445;52.100;5.176;2022-09-09T09:25:53;5.93;;;1.63;;
36411;SDS011;22445;52.100;5.176;2022-09-09T09:28:27;9.48;;;1.98;;
36411;SDS011;22445;52.100;5.176;2022-09-09T09:30:59;7.38;;;1.85;;
36411;SDS011;22445;52.100;5.176;2022-09-09T09:36:07;3.45;;;1.35;;
36411;SDS011;22445;52.100;5.176;2022-09-09T09:38:33;7.57;;;2.10;;
36411;SDS011;22445;52.100;5.176;2022-09-09T09:41:00;6.72;;;2.00;;
36411;SDS011;22445;52.100;5.176;2022-09-09T09:43:31;6.57;;;2.00;;
36411;SDS011;22445;52.100;5.176;2022-09-09T09:45:58;6.53;;;2.20;;
36411;SDS011;22445;52.100;5.176;2022-09-09T09:48:26;7.25;;;2.58;;
36411;SDS011;22445;52.100;5.176;2022-09-09T09:50:57;8.95;;;3.08;;
36411;SDS011;22445;52.100;5.176;2022-09-09T09:53:27;10.00;;;3.35;;
36411;SDS011;22445;52.100;5.176;2022-09-09T09:55:58;6.50;;;3.08;;
36411;SDS011;22445;52.100;5.176;2022-09-09T09:58:26;8.63;;;3.08;;
36411;SDS011;22445;52.100;5.176;2022-09-09T10:00:54;10.02;;;2.75;;
36411;SDS011;22445;52.100;5.176;2022-09-09T10:03:22;12.13;;;3.17;;
36411;SDS011;22445;52.100;5.176;2022-09-09T10:05:52;8.98;;;2.88;;
36411;SDS011;22445;52.100;5.176;2022-09-09T10:08:19;7.45;;;3.08;;
36411;SDS011;22445;52.100;5.176;2022-09-09T10:13:28;9.23;;;2.90;;
36411;SDS011;22445;52.100;5.176;2022-09-09T10:27:18;7.28;;;2.80;;
36411;SDS011;22445;52.100;5.176;2022-09-09T10:30:50;11.52;;;3.20;;
36411;SDS011;22445;52.100;5.176;2022-09-09T10:33:10;7.80;;;3.58;;
36411;SDS011;22445;52.100;5.176;2022-09-09T10:36:41;7.70;;;3.47;;
36411;SDS011;22445;52.100;5.176;2022-09-09T10:44:12;6.40;;;2.42;;
36411;SDS011;22445;52.100;5.176;2022-09-09T10:49:50;9.02;;;2.17;;
36411;SDS011;22445;52.100;5.176;2022-09-09T10:57:39;5.50;;;1.88;;
36411;SDS011;22445;52.100;5.176;2022-09-09T11:00:15;4.63;;;1.83;;
36411;SDS011;22445;52.100;5.176;2022-09-09T11:02:44;5.13;;;2.38;;
36411;SDS011;22445;52.100;5.176;2022-09-09T11:05:15;6.18;;;2.40;;
36411;SDS011;22445;52.100;5.176;2022-09-09T11:10:28;6.47;;;2.28;;
36411;SDS011;22445;52.100;5.176;2022-09-09T11:13:04;4.90;;;2.00;;
36411;SDS011;22445;52.100;5.176;2022-09-09T11:15:39;10.00;;;2.20;;
36411;SDS011;22445;52.100;5.176;2022-09-09T11:18:10;5.70;;;2.20;;
36411;SDS011;22445;52.100;5.176;2022-09-09T11:20:39;7.82;;;2.38;;
36411;SDS011;22445;52.100;5.176;2022-09-09T11:23:10;5.10;;;2.22;;
36411;SDS011;22445;52.100;5.176;2022-09-09T11:25:46;7.70;;;2.28;;
36411;SDS011;22445;52.100;5.176;2022-09-09T11:28:51;4.78;;;2.03;;
36411;SDS011;22445;52.100;5.176;2022-09-09T11:33:53;5.68;;;1.90;;
36411;SDS011;22445;52.100;5.176;2022-09-09T11:39:18;7.32;;;2.15;;
36411;SDS011;22445;52.100;5.176;2022-09-09T11:41:53;7.53;;;2.03;;
36411;SDS011;22445;52.100;5.176;2022-09-09T11:44:25;3.45;;;1.40;;
36411;SDS011;22445;52.100;5.176;2022-09-09T11:46:54;4.55;;;1.95;;
36411;SDS011;22445;52.100;5.176;2022-09-09T11:49:27;6.00;;;2.22;;
36411;SDS011;22445;52.100;5.176;2022-09-09T11:51:54;7.03;;;1.73;;
36411;SDS011;22445;52.100;5.176;2022-09-09T11:54:32;3.63;;;1.65;;
36411;SDS011;22445;52.100;5.176;2022-09-09T11:57:01;5.15;;;1.80;;
36411;SDS011;22445;52.100;5.176;2022-09-09T11:59:30;5.53;;;2.33;;
36411;SDS011;22445;52.100;5.176;2022-09-09T12:02:03;6.70;;;2.30;;
36411;SDS011;22445;52.100;5.176;2022-09-09T12:04:42;5.82;;;2.70;;
36411;SDS011;22445;52.100;5.176;2022-09-09T12:10:02;9.65;;;3.05;;
36411;SDS011;22445;52.100;5.176;2022-09-09T12:12:29;5.03;;;2.67;;
36411;SDS011;22445;52.100;5.176;2022-09-09T12:15:00;5.68;;;2.47;;
36411;SDS011;22445;52.100;5.176;2022-09-09T12:17:30;7.03;;;2.75;;
36411;SDS011;22445;52.100;5.176;2022-09-09T12:31:21;5.15;;;1.85;;
36411;SDS011;22445;52.100;5.176;2022-09-09T12:33:49;4.55;;;1.70;;
36411;SDS011;22445;52.100;5.176;2022-09-09T12:36:21;7.45;;;2.22;;
36411;SDS011;22445;52.100;5.176;2022-09-09T12:38:54;3.65;;;1.70;;
36411;SDS011;22445;52.100;5.176;2022-09-09T12:41:24;4.78;;;1.55;;
36411;SDS011;22445;52.100;5.176;2022-09-09T12:44:14;5.28;;;1.77;;
36411;SDS011;22445;52.100;5.176;2022-09-09T12:46:41;3.88;;;1.77;;
36411;SDS011;22445;52.100;5.176;2022-09-09T12:52:05;5.20;;;1.80;;
36411;SDS011;22445;52.100;5.176;2022-09-09T12:54:35;6.30;;;1.95;;
36411;SDS011;22445;52.100;5.176;2022-09-09T12:57:02;6.53;;;2.40;;
36411;SDS011;22445;52.100;5.176;2022-09-09T12:59:36;3.42;;;1.92;;
36411;SDS011;22445;52.100;5.176;2022-09-09T13:02:11;5.28;;;2.05;;
36411;SDS011;22445;52.100;5.176;2022-09-09T13:04:48;3.97;;;1.83;;
36411;SDS011;22445;52.100;5.176;2022-09-09T13:07:15;4.07;;;1.77;;
36411;SDS011;22445;52.100;5.176;2022-09-09T13:09:43;6.32;;;1.85;;
36411;SDS011;22445;52.100;5.176;2022-09-09T13:12:12;4.47;;;1.63;;
36411;SDS011;22445;52.100;5.176;2022-09-09T13:14:42;5.75;;;1.83;;
36411;SDS011;22445;52.100;5.176;2022-09-09T13:17:17;6.40;;;1.77;;
36411;SDS011;22445;52.100;5.176;2022-09-09T13:19:45;5.35;;;1.80;;
36411;SDS011;22445;52.100;5.176;2022-09-09T13:22:33;4.10;;;1.80;;
36411;SDS011;22445;52.100;5.176;2022-09-09T13:25:04;5.72;;;1.80;;
36411;SDS011;22445;52.100;5.176;2022-09-09T13:27:38;7.32;;;1.85;;
36411;SDS011;22445;52.100;5.176;2022-09-09T13:30:20;4.93;;;1.77;;
36411;SDS011;22445;52.100;5.176;2022-09-09T13:33:29;5.07;;;1.60;;
36411;SDS011;22445;52.100;5.176;2022-09-09T13:35:49;4.53;;;2.20;;
36411;SDS011;22445;52.100;5.176;2022-09-09T13:38:16;2.90;;;1.60;;
36411;SDS011;22445;52.100;5.176;2022-09-09T13:46:31;6.05;;;1.73;;
36411;SDS011;22445;52.100;5.176;2022-09-09T13:51:40;4.35;;;2.45;;
36411;SDS011;22445;52.100;5.176;2022-09-09T13:54:10;5.60;;;2.20;;
36411;SDS011;22445;52.100;5.176;2022-09-09T13:56:37;4.82;;;2.17;;
36411;SDS011;22445;52.100;5.176;2022-09-09T13:59:06;4.82;;;2.78;;
36411;SDS011;22445;52.100;5.176;2022-09-09T14:01:38;6.10;;;2.47;;
36411;SDS011;22445;52.100;5.176;2022-09-09T14:04:04;5.43;;;2.38;;
36411;SDS011;22445;52.100;5.176;2022-09-09T14:06:32;6.47;;;3.17;;
36411;SDS011;22445;52.100;5.176;2022-09-09T14:09:02;5.57;;;3.25;;
36411;SDS011;22445;52.100;5.176;2022-09-09T14:11:28;6.15;;;3.20;;
36411;SDS011;22445;52.100;5.176;2022-09-09T14:13:55;7.25;;;3.58;;
36411;SDS011;22445;52.100;5.176;2022-09-09T14:16:21;6.22;;;3.53;;
36411;SDS011;22445;52.100;5.176;2022-09-09T14:18:46;10.32;;;4.43;;
36411;SDS011;22445;52.100;5.176;2022-09-09T14:21:12;6.80;;;4.15;;
36411;SDS011;22445;52.100;5.176;2022-09-09T14:23:39;9.18;;;5.03;;
36411;SDS011;22445;52.100;5.176;2022-09-09T14:26:05;7.85;;;5.05;;
36411;SDS011;22445;52.100;5.176;2022-09-09T14:28:31;9.63;;;4.97;;
36411;SDS011;22445;52.100;5.176;2022-09-09T14:31:00;11.68;;;5.70;;
36411;SDS011;22445;52.100;5.176;2022-09-09T14:33:27;6.10;;;4.38;;
36411;SDS011;22445;52.100;5.176;2022-09-09T14:36:01;8.05;;;3.67;;
36411;SDS011;22445;52.100;5.176;2022-09-09T14:38:31;6.90;;;3.10;;
36411;SDS011;22445;52.100;5.176;2022-09-09T14:40:58;6.35;;;2.47;;
36411;SDS011;22445;52.100;5.176;2022-09-09T14:43:26;5.88;;;1.77;;
36411;SDS011;22445;52.100;5.176;2022-09-09T14:45:53;3.05;;;1.45;;
36411;SDS011;22445;52.100;5.176;2022-09-09T14:48:18;3.80;;;1.27;;
36411;SDS011;22445;52.100;5.176;2022-09-09T14:50:44;3.85;;;1.10;;
36411;SDS011;22445;52.100;5.176;2022-09-09T14:53:11;3.47;;;1.58;;
36411;SDS011;22445;52.100;5.176;2022-09-09T14:55:36;3.13;;;1.20;;
36411;SDS011;22445;52.100;5.176;2022-09-09T14:58:04;2.40;;;1.10;;
36411;SDS011;22445;52.100;5.176;2022-09-09T15:00:32;2.92;;;0.95;;
36411;SDS011;22445;52.100;5.176;2022-09-09T15:02:59;2.60;;;1.17;;
36411;SDS011;22445;52.100;5.176;2022-09-09T15:05:24;4.60;;;1.27;;
36411;SDS011;22445;52.100;5.176;2022-09-09T15:07:50;2.88;;;1.13;;
36411;SDS011;22445;52.100;5.176;2022-09-09T15:10:16;1.33;;;0.93;;
36411;SDS011;22445;52.100;5.176;2022-09-09T15:12:42;3.00;;;1.48;;
36411;SDS011;22445;52.100;5.176;2022-09-09T15:15:08;4.15;;;1.10;;
36411;SDS011;22445;52.100;5.176;2022-09-09T15:17:36;3.30;;;1.55;;
36411;SDS011;22445;52.100;5.176;2022-09-09T15:20:02;2.45;;;1.30;;
36411;SDS011;22445;52.100;5.176;2022-09-09T15:22:32;3.58;;;1.67;;
36411;SDS011;22445;52.100;5.176;2022-09-09T15:25:00;3.85;;;1.30;;
36411;SDS011;22445;52.100;5.176;2022-09-09T15:27:26;3.42;;;1.48;;
36411;SDS011;22445;52.100;5.176;2022-09-09T15:29:53;2.05;;;1.20;;
36411;SDS011;22445;52.100;5.176;2022-09-09T15:32:18;2.33;;;1.13;;
36411;SDS011;22445;52.100;5.176;2022-09-09T15:34:45;2.80;;;1.23;;
36411;SDS011;22445;52.100;5.176;2022-09-09T15:37:11;3.88;;;1.50;;
36411;SDS011;22445;52.100;5.176;2022-09-09T15:39:39;2.38;;;1.15;;
36411;SDS011;22445;52.100;5.176;2022-09-09T15:42:07;2.85;;;1.13;;
36411;SDS011;22445;52.100;5.176;2022-09-09T15:44:40;3.22;;;1.25;;
36411;SDS011;22445;52.100;5.176;2022-09-09T15:47:07;2.25;;;1.00;;
36411;SDS011;22445;52.100;5.176;2022-09-09T15:49:34;2.30;;;0.93;;
36411;SDS011;22445;52.100;5.176;2022-09-09T15:52:00;2.60;;;0.90;;
36411;SDS011;22445;52.100;5.176;2022-09-09T15:54:34;1.48;;;0.90;;
36411;SDS011;22445;52.100;5.176;2022-09-09T15:57:02;2.28;;;0.90;;
36411;SDS011;22445;52.100;5.176;2022-09-09T15:59:29;2.95;;;1.10;;
36411;SDS011;22445;52.100;5.176;2022-09-09T16:01:57;2.38;;;1.10;;
36411;SDS011;22445;52.100;5.176;2022-09-09T16:04:24;2.20;;;1.05;;
36411;SDS011;22445;52.100;5.176;2022-09-09T16:06:51;2.08;;;1.13;;
36411;SDS011;22445;52.100;5.176;2022-09-09T16:09:25;2.10;;;1.33;;
36411;SDS011;22445;52.100;5.176;2022-09-09T16:11:51;1.75;;;1.23;;
36411;SDS011;22445;52.100;5.176;2022-09-09T16:14:18;2.38;;;1.00;;
36411;SDS011;22445;52.100;5.176;2022-09-09T16:16:45;3.55;;;1.15;;
36411;SDS011;22445;52.100;5.176;2022-09-09T16:19:11;3.38;;;1.33;;
36411;SDS011;22445;52.100;5.176;2022-09-09T16:21:49;3.30;;;1.40;;
36411;SDS011;22445;52.100;5.176;2022-09-09T16:24:16;2.47;;;1.17;;
36411;SDS011;22445;52.100;5.176;2022-09-09T16:26:43;2.25;;;1.35;;
36411;SDS011;22445;52.100;5.176;2022-09-09T16:29:16;5.22;;;1.88;;
36411;SDS011;22445;52.100;5.176;2022-09-09T16:31:44;4.82;;;1.70;;
36411;SDS011;22445;52.100;5.176;2022-09-09T16:34:13;2.65;;;1.25;;
36411;SDS011;22445;52.100;5.176;2022-09-09T16:36:40;3.00;;;1.45;;
36411;SDS011;22445;52.100;5.176;2022-09-09T16:39:07;5.00;;;1.70;;
36411;SDS011;22445;52.100;5.176;2022-09-09T16:41:36;5.88;;;1.95;;
36411;SDS011;22445;52.100;5.176;2022-09-09T16:44:03;6.05;;;1.90;;
36411;SDS011;22445;52.100;5.176;2022-09-09T16:46:31;4.38;;;1.90;;
36411;SDS011;22445;52.100;5.176;2022-09-09T16:49:00;5.00;;;1.77;;
36411;SDS011;22445;52.100;5.176;2022-09-09T16:51:28;6.70;;;2.40;;
36411;SDS011;22445;52.100;5.176;2022-09-09T16:53:59;5.97;;;2.58;;
36411;SDS011;22445;52.100;5.176;2022-09-09T16:56:28;3.88;;;2.50;;
36411;SDS011;22445;52.100;5.176;2022-09-09T16:58:57;4.32;;;2.30;;
36411;SDS011;22445;52.100;5.176;2022-09-09T17:01:29;6.50;;;2.58;;
36411;SDS011;22445;52.100;5.176;2022-09-09T17:03:57;3.67;;;2.15;;
36411;SDS011;22445;52.100;5.176;2022-09-09T17:06:26;7.72;;;2.78;;
36411;SDS011;22445;52.100;5.176;2022-09-09T17:08:55;2.67;;;2.08;;
36411;SDS011;22445;52.100;5.176;2022-09-09T17:11:22;2.70;;;2.17;;
36411;SDS011;22445;52.100;5.176;2022-09-09T17:13:48;6.55;;;2.35;;
36411;SDS011;22445;52.100;5.176;2022-09-09T17:16:15;5.00;;;1.98;;